createdAt,value
2022-09-15T00:01:15.474Z,20.40
2022-09-15T00:03:43.139Z,20.20
2022-09-15T00:06:11.057Z,20.10
2022-09-15T00:08:39.313Z,20.30
2022-09-15T00:11:17.571Z,20.50
2022-09-15T00:13:45.614Z,20.60
2022-09-15T00:16:15.499Z,20.80
2022-09-15T00:18:44.939Z,20.90
2022-09-15T00:21:15.771Z,20.60
2022-09-15T00:23:43.952Z,20.40
2022-09-15T00:26:13.906Z,20.10
2022-09-15T00:28:41.907Z,20.00
2022-09-15T00:31:13.130Z,19.90
2022-09-15T00:33:41.009Z,19.80
2022-09-15T00:36:11.459Z,19.80
2022-09-15T00:38:39.125Z,20.00
2022-09-15T00:41:08.456Z,19.90
2022-09-15T00:43:50.427Z,19.80
2022-09-15T00:46:40.594Z,19.70
2022-09-15T00:49:34.669Z,19.70
2022-09-15T00:52:13.386Z,19.70
2022-09-15T00:55:02.630Z,19.70
2022-09-15T00:57:58.764Z,19.70
2022-09-15T01:00:28.193Z,19.80
2022-09-15T01:02:57.476Z,19.80
2022-09-15T01:05:48.014Z,19.70
2022-09-15T01:08:22.470Z,19.70
2022-09-15T01:10:52.049Z,19.80
2022-09-15T01:13:19.468Z,19.90
2022-09-15T01:15:58.469Z,19.80
2022-09-15T01:18:48.800Z,19.70
2022-09-15T01:21:29.232Z,19.60
2022-09-15T01:24:14.222Z,19.60
2022-09-15T01:26:57.737Z,19.70
2022-09-15T01:29:43.288Z,20.00
2022-09-15T01:32:53.759Z,20.10
2022-09-15T01:35:25.026Z,20.10
2022-09-15T01:38:18.349Z,20.00
2022-09-15T01:41:12.592Z,19.90
2022-09-15T01:43:56.144Z,19.70
2022-09-15T01:46:26.229Z,19.40
2022-09-15T01:48:56.491Z,19.30
2022-09-15T01:51:26.791Z,19.20
2022-09-15T01:53:55.748Z,19.10
2022-09-15T01:56:23.234Z,19.20
2022-09-15T01:58:51.445Z,19.20
2022-09-15T02:01:29.706Z,19.30
2022-09-15T02:04:06.949Z,19.20
2022-09-15T02:06:39.349Z,19.20
2022-09-15T02:09:15.237Z,19.20
2022-09-15T02:12:02.891Z,19.20
2022-09-15T02:15:03.299Z,19.10
2022-09-15T02:17:36.129Z,19.20
2022-09-15T02:20:17.851Z,19.20
2022-09-15T02:22:50.403Z,19.10
2022-09-15T02:25:23.903Z,19.10
2022-09-15T02:27:55.112Z,19.10
2022-09-15T02:30:23.420Z,19.00
2022-09-15T02:32:56.491Z,19.20
2022-09-15T02:35:26.954Z,19.40
2022-09-15T02:37:56.181Z,19.70
2022-09-15T02:40:24.030Z,19.80
2022-09-15T02:42:56.265Z,19.70
2022-09-15T02:45:26.976Z,19.90
2022-09-15T02:47:54.643Z,20.10
2022-09-15T02:50:22.385Z,20.30
2022-09-15T02:52:49.797Z,20.30
2022-09-15T02:55:17.195Z,20.30
2022-09-15T02:57:44.505Z,20.00
2022-09-15T03:00:13.785Z,19.80
2022-09-15T03:02:42.238Z,19.80
2022-09-15T03:05:10.298Z,19.60
2022-09-15T03:07:38.517Z,19.90
2022-09-15T03:10:07.383Z,20.10
2022-09-15T03:12:42.757Z,20.10
2022-09-15T03:15:12.289Z,19.90
2022-09-15T03:17:41.711Z,19.60
2022-09-15T03:20:12.094Z,19.60
2022-09-15T03:22:39.473Z,19.40
2022-09-15T03:25:07.862Z,19.50
2022-09-15T03:27:36.126Z,19.80
2022-09-15T03:30:05.234Z,19.60
2022-09-15T03:32:32.592Z,19.40
2022-09-15T03:34:59.999Z,19.30
2022-09-15T03:37:27.857Z,19.10
2022-09-15T03:39:55.997Z,18.90
2022-09-15T03:42:23.569Z,18.90
2022-09-15T03:44:50.940Z,18.90
2022-09-15T03:47:18.310Z,18.90
2022-09-15T03:49:45.699Z,18.90
2022-09-15T03:52:13.041Z,18.90
2022-09-15T03:54:41.455Z,19.10
2022-09-15T03:57:08.862Z,19.30
2022-09-15T03:59:36.312Z,19.40
2022-09-15T04:02:03.873Z,19.30
2022-09-15T04:04:32.112Z,19.20
2022-09-15T04:06:59.729Z,19.20
2022-09-15T04:09:27.240Z,19.40
2022-09-15T04:11:54.638Z,19.20
2022-09-15T04:14:21.960Z,19.00
2022-09-15T04:16:49.388Z,18.90
2022-09-15T04:19:16.777Z,19.00
2022-09-15T04:21:45.736Z,19.00
2022-09-15T04:24:13.469Z,18.80
2022-09-15T04:26:40.816Z,18.70
2022-09-15T04:29:14.257Z,18.70
2022-09-15T04:31:42.183Z,18.70
2022-09-15T04:34:10.186Z,18.60
2022-09-15T04:36:37.673Z,18.60
2022-09-15T04:39:06.683Z,18.60
2022-09-15T04:41:34.179Z,18.60
2022-09-15T04:44:02.182Z,18.80
2022-09-15T04:46:29.586Z,18.90
2022-09-15T04:48:57.543Z,19.00
2022-09-15T04:51:25.563Z,19.20
2022-09-15T04:53:53.463Z,19.30
2022-09-15T04:56:24.434Z,19.50
2022-09-15T04:59:01.097Z,19.50
2022-09-15T05:01:34.375Z,19.70
2022-09-15T05:04:04.080Z,19.70
2022-09-15T05:06:32.342Z,19.90
2022-09-15T05:08:59.750Z,20.00
2022-09-15T05:11:28.347Z,20.10
2022-09-15T05:13:55.747Z,20.10
2022-09-15T05:16:29.894Z,20.10
2022-09-15T05:19:00.107Z,20.10
2022-09-15T05:21:28.002Z,20.20
2022-09-15T05:23:55.588Z,20.20
2022-09-15T05:26:29.007Z,20.10
2022-09-15T05:28:57.690Z,20.20
2022-09-15T05:31:27.879Z,20.10
2022-09-15T05:33:55.364Z,20.00
2022-09-15T05:36:25.416Z,19.70
2022-09-15T05:38:54.249Z,19.60
2022-09-15T05:41:21.925Z,19.60
2022-09-15T05:43:50.845Z,19.70
2022-09-15T05:46:20.555Z,19.90
2022-09-15T05:48:48.132Z,19.90
2022-09-15T05:51:15.735Z,19.80
2022-09-15T05:53:43.283Z,19.70
2022-09-15T05:56:13.951Z,19.80
2022-09-15T05:58:43.150Z,19.90
2022-09-15T06:01:22.937Z,20.10
2022-09-15T06:03:50.830Z,20.40
2022-09-15T06:06:18.742Z,20.60
2022-09-15T06:08:51.869Z,20.80
2022-09-15T06:11:30.300Z,20.90
2022-09-15T06:14:06.015Z,21.20
2022-09-15T06:16:35.543Z,21.40
2022-09-15T06:19:03.444Z,21.30
2022-09-15T06:21:32.398Z,21.30
2022-09-15T06:24:03.272Z,21.50
2022-09-15T06:26:30.770Z,21.40
2022-09-15T06:29:02.908Z,21.20
2022-09-15T06:31:34.053Z,21.20
2022-09-15T06:34:03.062Z,21.20
2022-09-15T06:36:31.141Z,21.10
2022-09-15T06:38:59.593Z,21.10
2022-09-15T06:41:38.172Z,21.20
2022-09-15T06:44:21.529Z,21.20
2022-09-15T06:46:50.344Z,21.20
2022-09-15T06:49:17.898Z,21.20
2022-09-15T06:51:45.550Z,21.20
2022-09-15T06:54:14.610Z,21.20
2022-09-15T06:56:42.658Z,21.20
2022-09-15T06:59:13.707Z,21.40
2022-09-15T07:01:41.507Z,21.80
2022-09-15T07:04:10.125Z,22.30
2022-09-15T07:06:39.385Z,22.40
2022-09-15T07:09:07.160Z,22.30
2022-09-15T07:11:34.696Z,22.90
2022-09-15T07:14:02.261Z,23.90
2022-09-15T07:16:30.567Z,25.50
2022-09-15T07:19:00.557Z,25.10
2022-09-15T07:21:28.423Z,24.50
2022-09-15T07:23:57.433Z,24.10
2022-09-15T07:26:27.426Z,24.00
2022-09-15T07:29:00.352Z,23.70
2022-09-15T07:31:31.803Z,23.60
2022-09-15T07:34:00.040Z,23.70
2022-09-15T07:36:27.491Z,23.80
2022-09-15T07:38:54.841Z,23.80
2022-09-15T07:41:24.957Z,24.10
2022-09-15T07:43:54.666Z,23.70
2022-09-15T07:46:23.840Z,23.80
2022-09-15T07:48:56.323Z,24.00
2022-09-15T07:51:24.996Z,24.40
2022-09-15T07:53:52.973Z,24.60
2022-09-15T07:56:20.978Z,24.60
2022-09-15T07:58:49.406Z,24.90
2022-09-15T08:01:18.206Z,25.30
2022-09-15T08:03:48.902Z,25.80
2022-09-15T08:06:19.490Z,25.60
2022-09-15T08:08:47.418Z,25.30
2022-09-15T08:11:19.736Z,25.20
2022-09-15T08:13:49.434Z,25.40
2022-09-15T08:16:20.400Z,25.60
2022-09-15T08:18:49.153Z,25.60
2022-09-15T08:21:20.213Z,25.60
2022-09-15T08:23:56.184Z,25.50
2022-09-15T08:26:25.444Z,25.50
2022-09-15T08:28:53.330Z,25.40
2022-09-15T08:31:21.132Z,25.20
2022-09-15T08:33:53.608Z,25.00
2022-09-15T08:36:21.288Z,25.00
2022-09-15T08:38:48.866Z,25.10
2022-09-15T08:41:24.473Z,25.20
2022-09-15T08:43:59.353Z,25.40
2022-09-15T08:46:37.186Z,25.50
2022-09-15T08:49:50.110Z,25.60
2022-09-15T08:52:37.965Z,25.60
2022-09-15T08:55:14.727Z,25.60
2022-09-15T08:57:42.234Z,25.50
2022-09-15T09:00:16.787Z,25.60
2022-09-15T09:03:21.663Z,25.70
2022-09-15T09:06:20.104Z,25.60
2022-09-15T09:08:50.497Z,25.70
2022-09-15T09:11:52.678Z,25.80
2022-09-15T09:14:38.206Z,25.70
2022-09-15T09:17:05.564Z,25.80
2022-09-15T09:19:42.022Z,26.00
2022-09-15T09:22:17.828Z,26.00
2022-09-15T09:24:48.283Z,25.80
2022-09-15T09:27:24.330Z,26.10
2022-09-15T09:30:10.860Z,26.10
2022-09-15T09:32:46.286Z,26.20
2022-09-15T09:35:24.945Z,26.40
2022-09-15T09:37:53.522Z,26.40
2022-09-15T09:40:21.574Z,26.50
2022-09-15T09:42:49.303Z,26.60
2022-09-15T09:45:18.693Z,26.70
2022-09-15T09:47:49.048Z,26.70
2022-09-15T09:50:43.208Z,26.70
2022-09-15T09:53:31.072Z,26.70
2022-09-15T09:56:23.928Z,26.80
2022-09-15T09:58:52.058Z,26.70
2022-09-15T10:01:21.816Z,26.70
2022-09-15T10:03:49.330Z,26.60
2022-09-15T10:06:19.064Z,26.60
2022-09-15T10:08:56.347Z,26.80
2022-09-15T10:11:42.015Z,26.60
2022-09-15T10:14:20.051Z,26.90
2022-09-15T10:17:04.273Z,26.70
2022-09-15T10:19:36.631Z,26.60
2022-09-15T10:22:05.130Z,26.80
2022-09-15T10:24:42.286Z,26.90
2022-09-15T10:27:26.240Z,27.10
2022-09-15T10:29:54.572Z,27.30
2022-09-15T10:32:31.579Z,27.30
2022-09-15T10:35:13.008Z,27.30
2022-09-15T10:37:58.906Z,27.40
2022-09-15T10:40:50.971Z,27.20
2022-09-15T10:43:18.322Z,27.20
2022-09-15T10:45:49.151Z,27.10
2022-09-15T10:48:45.444Z,27.00
2022-09-15T10:51:31.076Z,27.00
2022-09-15T10:54:13.591Z,27.30
2022-09-15T10:56:52.390Z,27.30
2022-09-15T10:59:38.146Z,27.10
2022-09-15T11:02:08.421Z,27.30
2022-09-15T11:04:50.882Z,27.30
2022-09-15T11:07:21.114Z,27.40
2022-09-15T11:10:01.763Z,27.30
2022-09-15T11:12:45.259Z,27.60
2022-09-15T11:15:28.196Z,27.30
2022-09-15T11:18:07.341Z,27.50
2022-09-15T11:20:51.397Z,27.50
2022-09-15T11:23:44.146Z,27.40
2022-09-15T11:26:32.619Z,27.70
2022-09-15T11:29:17.682Z,27.90
2022-09-15T11:31:50.747Z,28.00
2022-09-15T11:34:25.245Z,28.20
2022-09-15T11:37:17.242Z,28.20
2022-09-15T11:39:53.556Z,28.00
2022-09-15T11:42:31.129Z,28.00
2022-09-15T11:44:59.620Z,28.10
2022-09-15T11:47:45.057Z,28.20
2022-09-15T11:50:19.502Z,28.40
2022-09-15T11:52:52.345Z,28.50
2022-09-15T11:55:40.385Z,28.40
2022-09-15T11:58:21.823Z,28.40
2022-09-15T12:00:55.185Z,28.20
2022-09-15T12:03:28.696Z,28.00
2022-09-15T12:06:05.619Z,27.90
2022-09-15T12:08:58.071Z,27.90
2022-09-15T12:11:26.653Z,27.80
2022-09-15T12:13:55.263Z,27.80
2022-09-15T12:16:23.776Z,27.90
2022-09-15T12:19:37.583Z,28.00
2022-09-15T12:22:09.772Z,28.30
2022-09-15T12:25:01.468Z,28.40
2022-09-15T12:27:29.653Z,28.40
2022-09-15T12:29:59.875Z,28.50
2022-09-15T12:32:33.322Z,28.60
2022-09-15T12:35:02.838Z,28.50
2022-09-15T12:37:37.323Z,28.70
2022-09-15T12:40:07.578Z,28.70
2022-09-15T12:42:37.083Z,28.70
2022-09-15T12:45:27.447Z,28.60
2022-09-15T12:48:03.746Z,28.60
2022-09-15T12:50:37.484Z,28.90
2022-09-15T12:53:21.105Z,28.90
2022-09-15T12:55:58.930Z,28.60
2022-09-15T12:58:32.174Z,28.90
2022-09-15T13:01:18.814Z,29.00
2022-09-15T13:03:47.498Z,29.20
2022-09-15T13:06:38.477Z,29.20
2022-09-15T13:09:05.936Z,29.10
2022-09-15T13:11:51.116Z,29.10
2022-09-15T13:14:35.696Z,29.30
2022-09-15T13:17:20.050Z,29.20
2022-09-15T13:19:50.373Z,29.20
2022-09-15T13:22:20.786Z,29.00
2022-09-15T13:25:07.033Z,29.00
2022-09-15T13:27:50.387Z,29.30
2022-09-15T13:30:21.261Z,29.50
2022-09-15T13:33:05.009Z,29.50
2022-09-15T13:35:56.780Z,29.40
2022-09-15T13:38:42.690Z,29.20
2022-09-15T13:41:24.712Z,29.20
2022-09-15T13:44:29.739Z,29.10
2022-09-15T13:47:24.976Z,29.10
2022-09-15T13:50:01.568Z,29.10
2022-09-15T13:53:00.817Z,29.00
2022-09-15T13:55:34.037Z,29.00
2022-09-15T14:00:53.890Z,29.20
2022-09-15T14:03:28.141Z,29.10
2022-09-15T14:05:57.767Z,29.10
2022-09-15T14:08:32.641Z,29.10
2022-09-15T14:11:10.723Z,29.00
2022-09-15T14:13:47.627Z,29.00
2022-09-15T14:16:28.121Z,28.90
2022-09-15T14:18:58.374Z,28.80
2022-09-15T14:21:34.557Z,28.60
2022-09-15T14:24:16.054Z,28.60
2022-09-15T14:26:43.698Z,28.70
2022-09-15T14:29:24.974Z,28.60
2022-09-15T14:31:53.306Z,28.50
2022-09-15T14:34:24.154Z,28.50
2022-09-15T14:37:12.726Z,28.40
2022-09-15T14:39:40.419Z,28.50
2022-09-15T14:42:36.043Z,28.50
2022-09-15T14:48:11.399Z,28.20
2022-09-15T14:50:38.930Z,28.00
2022-09-15T14:53:24.035Z,27.90
2022-09-15T14:56:07.659Z,27.70
2022-09-15T14:58:43.345Z,27.40
2022-09-15T15:01:45.455Z,27.50
2022-09-15T15:04:19.088Z,27.60
2022-09-15T15:06:58.852Z,27.80
2022-09-15T15:09:41.393Z,27.60
2022-09-15T15:12:20.708Z,27.50
2022-09-15T15:14:48.648Z,27.20
2022-09-15T15:17:25.242Z,27.10
2022-09-15T15:20:12.132Z,27.00
2022-09-15T15:22:41.773Z,26.90
2022-09-15T15:25:30.059Z,26.80
2022-09-15T15:27:59.176Z,26.70
2022-09-15T15:30:32.030Z,26.70
2022-09-15T15:33:06.800Z,26.50
2022-09-15T15:35:35.830Z,26.40
2022-09-15T15:38:14.072Z,26.50
2022-09-15T15:40:42.417Z,26.70
2022-09-15T15:43:25.241Z,26.80
2022-09-15T15:46:00.725Z,26.80
2022-09-15T15:48:36.911Z,27.00
2022-09-15T15:51:07.524Z,27.00
2022-09-15T15:53:35.613Z,27.20
2022-09-15T15:56:03.147Z,26.90
2022-09-15T15:58:31.344Z,26.80
2022-09-15T16:00:58.759Z,26.60
2022-09-15T16:03:26.270Z,26.50
2022-09-15T16:05:57.629Z,26.50
2022-09-15T16:08:30.046Z,26.40
2022-09-15T16:10:58.226Z,26.40
2022-09-15T16:13:26.004Z,26.30
2022-09-15T16:15:54.298Z,26.40
2022-09-15T16:18:21.784Z,26.40
2022-09-15T16:20:49.530Z,26.30
2022-09-15T16:23:19.129Z,26.30
2022-09-15T16:26:05.176Z,26.40
2022-09-15T16:28:32.663Z,26.40
2022-09-15T16:31:00.156Z,26.20
2022-09-15T16:33:27.600Z,26.10
2022-09-15T16:35:55.202Z,26.10
2022-09-15T16:38:25.962Z,26.10
2022-09-15T16:40:53.386Z,26.10
2022-09-15T16:43:22.973Z,25.90
2022-09-15T16:45:51.433Z,25.80
2022-09-15T16:48:19.420Z,25.80
2022-09-15T16:53:36.407Z,25.70
2022-09-15T16:56:04.276Z,25.70
2022-09-15T16:58:31.768Z,25.60
2022-09-15T17:00:59.331Z,25.50
2022-09-15T17:03:27.531Z,25.40
2022-09-15T17:06:00.376Z,25.20
2022-09-15T17:08:33.176Z,25.00
2022-09-15T17:11:03.269Z,25.00
2022-09-15T17:13:33.994Z,24.80
2022-09-15T17:16:02.193Z,24.70
2022-09-15T17:18:30.303Z,24.60
2022-09-15T17:20:57.893Z,24.60
2022-09-15T17:23:31.807Z,24.60
2022-09-15T17:26:01.316Z,24.50
2022-09-15T17:28:31.790Z,24.50
2022-09-15T17:31:02.267Z,24.40
2022-09-15T17:33:31.371Z,24.30
2022-09-15T17:35:59.810Z,24.20
2022-09-15T17:38:27.514Z,24.10
2022-09-15T17:40:55.525Z,24.00
2022-09-15T17:43:25.591Z,23.90
2022-09-15T17:45:53.302Z,23.90
2022-09-15T17:48:22.157Z,23.80
2022-09-15T17:50:49.709Z,23.80
2022-09-15T17:53:21.660Z,23.90
2022-09-15T17:55:50.173Z,24.10
2022-09-15T17:58:18.204Z,24.10
2022-09-15T18:00:47.613Z,24.20
2022-09-15T18:03:17.812Z,24.20
2022-09-15T18:05:45.882Z,24.20
2022-09-15T18:08:13.483Z,24.00
2022-09-15T18:10:40.857Z,23.80
2022-09-15T18:13:14.573Z,23.60
2022-09-15T18:15:42.914Z,23.40
2022-09-15T18:18:14.775Z,23.20
2022-09-15T18:20:42.798Z,23.20
2022-09-15T18:23:18.814Z,23.40
2022-09-15T18:25:47.396Z,23.40
2022-09-15T18:28:15.412Z,23.20
2022-09-15T18:30:44.719Z,22.90
2022-09-15T18:33:38.595Z,22.60
2022-09-15T18:36:07.415Z,22.30
2022-09-15T18:38:34.827Z,22.30
2022-09-15T18:41:03.792Z,22.70
2022-09-15T18:43:31.418Z,23.20
2022-09-15T18:46:00.294Z,23.50
2022-09-15T18:48:28.033Z,23.70
2022-09-15T18:50:55.946Z,23.80
2022-09-15T18:53:23.481Z,23.80
2022-09-15T18:55:50.817Z,23.60
2022-09-15T18:58:19.299Z,23.60
2022-09-15T19:00:47.145Z,23.60
2022-09-15T19:03:14.539Z,23.30
2022-09-15T19:05:41.991Z,22.90
2022-09-15T19:08:11.390Z,22.60
2022-09-15T19:10:41.552Z,22.60
2022-09-15T19:13:11.508Z,22.60
2022-09-15T19:15:39.950Z,22.60
2022-09-15T19:18:07.482Z,22.60
2022-09-15T19:20:35.123Z,22.50
2022-09-15T19:23:03.207Z,22.70
2022-09-15T19:25:30.592Z,22.50
2022-09-15T19:27:58.002Z,22.40
2022-09-15T19:30:25.461Z,22.20
2022-09-15T19:32:53.156Z,22.20
2022-09-15T19:35:21.300Z,22.30
2022-09-15T19:37:48.763Z,22.30
2022-09-15T19:40:16.857Z,22.20
2022-09-15T19:42:44.908Z,22.40
2022-09-15T19:45:13.548Z,22.50
2022-09-15T19:47:41.964Z,22.30
2022-09-15T19:50:11.738Z,22.10
2022-09-15T19:52:39.536Z,21.90
2022-09-15T19:55:09.589Z,21.80
2022-09-15T19:57:41.065Z,21.70
2022-09-15T20:00:10.852Z,21.60
2022-09-15T20:02:39.155Z,21.40
2022-09-15T20:05:07.690Z,21.30
2022-09-15T20:07:35.103Z,21.30
2022-09-15T20:10:02.701Z,21.20
2022-09-15T20:12:31.257Z,21.20
2022-09-15T20:14:58.745Z,21.10
2022-09-15T20:17:26.291Z,21.30
2022-09-15T20:19:53.776Z,21.10
2022-09-15T20:22:21.849Z,21.00
2022-09-15T20:24:49.387Z,21.00
2022-09-15T20:27:17.007Z,20.90
2022-09-15T20:29:44.400Z,20.80
2022-09-15T20:32:11.834Z,20.80
2022-09-15T20:34:39.315Z,20.80
2022-09-15T20:37:07.129Z,20.80
2022-09-15T20:39:35.379Z,20.70
2022-09-15T20:42:02.785Z,20.80
2022-09-15T20:44:30.166Z,20.70
2022-09-15T20:46:57.552Z,20.60
2022-09-15T20:49:24.979Z,20.60
2022-09-15T20:51:52.479Z,20.90
2022-09-15T20:54:20.043Z,21.00
2022-09-15T20:56:47.415Z,21.10
2022-09-15T20:59:15.201Z,21.20
2022-09-15T21:01:43.571Z,21.20
2022-09-15T21:04:11.232Z,21.20
2022-09-15T21:06:39.030Z,21.20
2022-09-15T21:09:07.234Z,21.10
2022-09-15T21:11:35.358Z,21.00
2022-09-15T21:14:03.285Z,21.00
2022-09-15T21:16:30.995Z,21.30
2022-09-15T21:18:58.784Z,21.50
2022-09-15T21:21:29.834Z,21.70
2022-09-15T21:24:01.276Z,21.70
2022-09-15T21:26:59.933Z,21.80
2022-09-15T21:29:28.464Z,21.70
2022-09-15T21:31:56.051Z,21.70
2022-09-15T21:34:24.029Z,21.70
2022-09-15T21:36:54.319Z,21.70
2022-09-15T21:39:21.697Z,21.70
2022-09-15T21:41:49.758Z,21.80
2022-09-15T21:44:17.185Z,21.80
2022-09-15T21:46:46.985Z,21.70
2022-09-15T21:49:14.713Z,21.80
2022-09-15T21:51:42.169Z,21.90
2022-09-15T21:54:10.066Z,21.80
2022-09-15T21:56:37.630Z,21.70
2022-09-15T21:59:05.311Z,21.70
2022-09-15T22:01:33.491Z,21.40
2022-09-15T22:04:03.773Z,21.40
2022-09-15T22:06:33.705Z,21.50
2022-09-15T22:09:03.978Z,21.60
2022-09-15T22:11:32.209Z,21.70
2022-09-15T22:14:02.786Z,21.50
2022-09-15T22:16:30.507Z,21.40
2022-09-15T22:18:57.995Z,21.00
2022-09-15T22:21:29.225Z,20.70
2022-09-15T22:23:57.799Z,20.70
2022-09-15T22:26:31.105Z,21.00
2022-09-15T22:29:02.339Z,21.30
2022-09-15T22:31:30.580Z,21.00
2022-09-15T22:33:58.098Z,20.70
2022-09-15T22:36:29.547Z,20.60
2022-09-15T22:39:05.478Z,20.30
2022-09-15T22:41:36.253Z,20.20
2022-09-15T22:44:04.953Z,20.30
2022-09-15T22:46:32.368Z,20.50
2022-09-15T22:49:00.293Z,20.70
2022-09-15T22:51:27.998Z,20.60
2022-09-15T22:53:57.084Z,20.50
2022-09-15T22:56:26.214Z,20.40
2022-09-15T22:58:55.557Z,20.20
2022-09-15T23:01:26.924Z,20.20
2022-09-15T23:03:57.289Z,20.40
2022-09-15T23:06:26.519Z,20.70
2022-09-15T23:09:00.070Z,20.80
2022-09-15T23:11:29.307Z,20.90
2022-09-15T23:13:56.851Z,21.00
2022-09-15T23:16:25.214Z,21.00
2022-09-15T23:18:53.865Z,21.00
2022-09-15T23:21:21.821Z,21.10
2022-09-15T23:23:49.396Z,21.10
2022-09-15T23:26:19.509Z,21.10
2022-09-15T23:28:47.622Z,21.00
2022-09-15T23:31:15.779Z,21.10
2022-09-15T23:33:43.738Z,21.10
2022-09-15T23:36:14.092Z,21.00
2022-09-15T23:38:44.193Z,20.90
2022-09-15T23:41:12.434Z,20.90
2022-09-15T23:43:40.153Z,21.00
2022-09-15T23:46:07.628Z,21.00
2022-09-15T23:48:35.228Z,21.10
2022-09-15T23:51:03.174Z,21.00
2022-09-15T23:53:30.605Z,21.00
2022-09-15T23:55:58.340Z,20.90
2022-09-15T23:58:25.721Z,20.80
